Time;durP1;ratioP1;P1;durP2;ratioP2;P2;SDS_P1;SDS_P2;PMS_P1;PMS_P2;Temp;Humidity;BMP_temperature;BMP_pressure;BME280_temperature;BME280_humidity;BME280_pressure;Samples;Min_cycle;Max_cycle;Signal;HPM_P1;HPM_P2
2022/07/09 00:00:20;;;;;;;5.20;1.60;;;;;;;12.54;81.78;97012.59;5009378;28;24494;-73
2022/07/09 00:02:46;;;;;;;2.78;1.67;;;;;;;12.46;82.76;97014.72;5001767;28;24795;-73
2022/07/09 00:05:13;;;;;;;3.58;1.27;;;;;;;12.47;81.98;97012.06;5010474;28;24436;-73
2022/07/09 00:07:40;;;;;;;3.85;2.03;;;;;;;12.46;82.36;97007.78;5008868;28;24492;-74
2022/07/09 00:10:08;;;;;;;3.63;1.93;;;;;;;12.43;83.00;97010.53;5009920;28;25029;-75
2022/07/09 00:12:35;;;;;;;3.35;1.80;;;;;;;12.43;83.00;97000.13;5009404;28;24803;-74
2022/07/09 00:15:01;;;;;;;4.40;1.95;;;;;;;12.42;83.37;97008.00;5009534;28;25008;-74
2022/07/09 00:17:29;;;;;;;3.25;1.60;;;;;;;12.29;84.39;97000.81;5010302;28;24487;-74
2022/07/09 00:19:56;;;;;;;6.35;2.47;;;;;;;12.22;85.43;96999.44;5008872;28;24433;-74
2022/07/09 00:22:22;;;;;;;6.00;2.10;;;;;;;12.21;86.03;97002.97;5004326;28;24500;-74
2022/07/09 00:24:49;;;;;;;4.05;2.10;;;;;;;12.28;85.29;96999.16;5010981;28;24443;-74
2022/07/09 00:27:17;;;;;;;2.80;1.80;;;;;;;12.31;85.46;96998.13;5009845;28;24437;-74
2022/07/09 00:29:43;;;;;;;3.13;1.60;;;;;;;12.36;84.73;96996.16;5006988;28;24464;-74
2022/07/09 00:32:10;;;;;;;4.20;2.17;;;;;;;12.49;83.61;96997.19;5012077;28;24486;-74
2022/07/09 00:34:36;;;;;;;2.30;1.60;;;;;;;12.43;83.69;96988.91;5007708;28;24444;-74
2022/07/09 00:37:03;;;;;;;6.45;1.88;;;;;;;12.34;83.95;96987.59;5012059;28;24896;-74
2022/07/09 00:39:29;;;;;;;2.78;1.63;;;;;;;12.23;84.46;96982.94;4999764;28;24982;-74
2022/07/09 00:42:03;;;;;;;3.53;1.55;;;;;;;12.23;84.79;96985.53;5011971;28;24440;-74
2022/07/09 00:44:31;;;;;;;7.22;1.80;;;;;;;12.28;84.07;96980.97;5008619;28;24428;-73
2022/07/09 00:46:57;;;;;;;3.40;1.70;;;;;;;12.25;84.09;96978.50;5006035;28;24824;-74
2022/07/09 00:49:25;;;;;;;2.47;1.40;;;;;;;12.24;83.97;96976.84;5008049;28;24490;-74
2022/07/09 00:51:52;;;;;;;3.03;1.58;;;;;;;12.20;84.45;96974.44;5009476;28;24467;-74
2022/07/09 00:54:18;;;;;;;2.80;1.50;;;;;;;12.20;84.81;96975.31;5008291;28;24439;-74
2022/07/09 00:56:45;;;;;;;2.42;1.50;;;;;;;12.22;84.66;96970.88;5006134;28;24436;-74
2022/07/09 00:59:13;;;;;;;4.05;1.60;;;;;;;12.29;83.97;96964.44;5008730;28;24445;-74
2022/07/09 01:01:41;;;;;;;4.00;1.90;;;;;;;12.24;84.17;96968.22;5003381;28;24825;-74
2022/07/09 01:04:07;;;;;;;2.70;1.63;;;;;;;12.27;83.58;96962.84;5003740;28;24479;-74
2022/07/09 01:06:34;;;;;;;3.38;1.80;;;;;;;12.28;83.33;96965.38;5011092;28;25078;-74
2022/07/09 01:09:01;;;;;;;4.15;1.30;;;;;;;12.08;83.94;96962.91;5008844;28;24523;-74
2022/07/09 01:11:28;;;;;;;4.90;1.55;;;;;;;12.08;83.53;96957.72;5006170;28;24455;-74
2022/07/09 01:13:54;;;;;;;3.22;1.70;;;;;;;12.01;83.88;96948.56;5009323;28;24432;-74
2022/07/09 01:16:22;;;;;;;3.08;1.90;;;;;;;11.91;83.56;96952.56;5006622;28;24436;-74
2022/07/09 01:18:50;;;;;;;6.75;1.45;;;;;;;11.88;84.27;96955.28;5004527;28;24448;-74
2022/07/09 01:21:18;;;;;;;2.90;1.65;;;;;;;11.80;84.97;96948.69;4996662;28;24435;-74
2022/07/09 01:23:44;;;;;;;2.97;1.63;;;;;;;11.69;86.05;96960.50;5009518;28;24567;-74
2022/07/09 01:26:11;;;;;;;3.55;1.88;;;;;;;11.69;85.76;96961.34;5006790;28;24436;-74
2022/07/09 01:28:37;;;;;;;2.53;1.38;;;;;;;11.75;84.91;96953.25;5001021;28;24802;-74
2022/07/09 01:31:04;;;;;;;2.65;1.50;;;;;;;11.76;85.27;96946.31;5006790;28;24836;-74
2022/07/09 01:33:31;;;;;;;5.10;2.10;;;;;;;11.76;85.41;96944.56;5009688;28;24439;-74
2022/07/09 01:35:58;;;;;;;4.78;2.20;;;;;;;11.65;86.64;96944.25;5006975;28;24441;-74
2022/07/09 01:38:26;;;;;;;2.88;1.80;;;;;;;11.52;88.45;96943.97;5009209;28;24440;-74
2022/07/09 01:40:52;;;;;;;3.35;2.08;;;;;;;11.56;88.00;96940.31;5006298;28;24432;-74
2022/07/09 01:43:19;;;;;;;4.20;2.50;;;;;;;11.68;87.67;96927.66;5001941;28;24790;-74
2022/07/09 01:45:47;;;;;;;4.00;2.33;;;;;;;11.70;87.77;96925.84;5005113;28;24997;-75
2022/07/09 01:48:14;;;;;;;4.68;2.00;;;;;;;11.65;88.20;96935.63;5010416;28;24448;-74
2022/07/09 01:50:40;;;;;;;3.72;2.13;;;;;;;11.57;88.80;96933.41;5005038;28;24449;-74
2022/07/09 01:53:07;;;;;;;3.10;2.22;;;;;;;11.53;89.38;96934.44;5010294;28;24459;-74
2022/07/09 01:55:34;;;;;;;2.40;1.65;;;;;;;11.54;89.77;96942.16;4991870;28;24847;-74
2022/07/09 01:58:01;;;;;;;2.72;1.60;;;;;;;11.57;89.55;96942.03;5009776;28;24439;-74
2022/07/09 02:00:29;;;;;;;7.32;1.80;;;;;;;11.68;88.45;96933.72;5008498;28;24491;-74
2022/07/09 02:02:55;;;;;;;2.60;1.90;;;;;;;11.68;88.04;96925.94;5001568;28;24538;-74
2022/07/09 02:05:22;;;;;;;3.58;1.98;;;;;;;11.70;87.50;96924.09;5009111;28;25016;-74
2022/07/09 02:07:48;;;;;;;3.28;1.80;;;;;;;11.67;87.04;96916.44;5009178;28;24440;-74
2022/07/09 02:10:15;;;;;;;4.47;1.88;;;;;;;11.57;87.35;96920.44;5004634;28;25036;-74
2022/07/09 02:12:43;;;;;;;4.27;1.77;;;;;;;11.53;87.48;96916.28;5007799;28;24488;-74
2022/07/09 02:15:12;;;;;;;2.72;1.70;;;;;;;11.49;88.12;96914.75;5010559;28;24439;-74
2022/07/09 02:17:39;;;;;;;4.60;1.73;;;;;;;11.47;88.04;96909.66;4999280;28;24443;-74
2022/07/09 02:20:08;;;;;;;4.22;1.90;;;;;;;11.52;88.36;96918.03;5005605;28;24479;-74
2022/07/09 02:22:35;;;;;;;6.97;1.73;;;;;;;11.55;88.61;96919.66;5000091;28;24973;-74
2022/07/09 02:25:01;;;;;;;4.82;2.10;;;;;;;11.44;89.08;96920.16;4999026;28;25041;-75
2022/07/09 02:27:28;;;;;;;2.17;1.50;;;;;;;11.37;89.42;96919.59;5006565;28;25004;-74
2022/07/09 02:29:55;;;;;;;2.77;1.60;;;;;;;11.34;89.38;96924.94;5005602;28;24576;-74
2022/07/09 02:32:22;;;;;;;3.58;1.55;;;;;;;11.41;87.76;96917.72;5003094;28;24458;-74
2022/07/09 02:34:48;;;;;;;3.27;1.70;;;;;;;11.50;86.80;96919.03;5006002;28;24444;-74
2022/07/09 02:37:15;;;;;;;2.10;1.50;;;;;;;11.36;87.93;96923.13;5001691;28;24441;-74
2022/07/09 02:39:41;;;;;;;2.90;1.70;;;;;;;11.22;88.72;96920.34;5006309;28;24842;-74
2022/07/09 02:42:07;;;;;;;3.00;1.70;;;;;;;11.15;89.16;96922.38;5002011;28;24429;-74
2022/07/09 02:44:34;;;;;;;4.82;1.60;;;;;;;11.17;88.85;96926.66;5006225;28;24448;-74
2022/07/09 02:47:02;;;;;;;4.70;2.03;;;;;;;11.26;87.90;96927.06;5008470;28;24510;-74
2022/07/09 02:49:29;;;;;;;2.22;1.42;;;;;;;11.21;88.52;96928.19;5005561;28;24973;-74
2022/07/09 02:51:57;;;;;;;2.63;1.70;;;;;;;11.15;88.66;96919.78;5009872;28;24810;-74
2022/07/09 02:54:24;;;;;;;3.95;1.73;;;;;;;11.16;88.56;96915.47;5008457;28;24439;-74
2022/07/09 02:56:50;;;;;;;2.13;1.50;;;;;;;11.00;89.36;96915.31;5012636;28;24432;-74
2022/07/09 02:59:16;;;;;;;2.00;1.58;;;;;;;10.93;90.06;96923.44;5010032;28;24490;-74
2022/07/09 03:01:43;;;;;;;3.13;1.87;;;;;;;10.95;90.09;96919.03;5013293;28;24511;-74
2022/07/09 03:04:11;;;;;;;4.60;1.60;;;;;;;10.91;90.39;96923.53;5010078;28;25031;-74
2022/07/09 03:06:37;;;;;;;4.07;2.13;;;;;;;10.88;90.78;96919.31;5012933;28;24981;-74
2022/07/09 03:09:04;;;;;;;8.77;1.65;;;;;;;10.79;91.35;96914.56;5009917;28;24440;-74
2022/07/09 03:11:30;;;;;;;3.10;1.80;;;;;;;10.81;90.22;96922.25;5012816;28;24452;-74
2022/07/09 03:13:57;;;;;;;2.08;1.60;;;;;;;10.73;91.46;96912.22;5010517;28;24440;-74
2022/07/09 03:16:23;;;;;;;4.35;1.85;;;;;;;10.76;91.53;96914.69;5013311;28;24432;-74
2022/07/09 03:18:49;;;;;;;2.47;1.70;;;;;;;10.81;90.92;96928.28;5010458;28;24452;-75
2022/07/09 03:21:17;;;;;;;3.10;1.70;;;;;;;10.92;89.57;96919.19;5005099;28;24513;-74
2022/07/09 03:23:44;;;;;;;2.70;1.73;;;;;;;10.89;89.53;96920.97;5010160;28;24433;-74
2022/07/09 03:26:11;;;;;;;2.50;2.05;;;;;;;10.89;89.29;96926.16;5012959;28;24486;-74
2022/07/09 03:28:37;;;;;;;4.40;1.97;;;;;;;10.84;89.88;96922.13;5004160;28;25399;-74
2022/07/09 03:31:04;;;;;;;2.22;1.70;;;;;;;10.73;90.71;96926.94;5012373;28;24511;-74
2022/07/09 03:33:30;;;;;;;3.70;2.20;;;;;;;10.57;92.43;96934.56;5008224;28;24482;-75
2022/07/09 03:35:57;;;;;;;3.58;2.17;;;;;;;10.57;92.96;96924.19;4998373;28;24524;-75
2022/07/09 03:38:25;;;;;;;3.88;2.20;;;;;;;10.53;94.38;96922.63;5011208;28;25057;-74
2022/07/09 03:40:52;;;;;;;3.22;1.83;;;;;;;10.56;94.52;96925.94;5007576;28;24440;-74
2022/07/09 03:43:19;;;;;;;4.47;2.15;;;;;;;10.56;94.41;96917.31;5007386;28;24519;-74
2022/07/09 03:45:45;;;;;;;3.05;1.83;;;;;;;10.52;94.56;96918.38;5001089;28;24449;-74
2022/07/09 03:48:11;;;;;;;3.08;1.90;;;;;;;10.58;93.82;96918.09;5009192;28;24444;-74
2022/07/09 03:50:38;;;;;;;2.85;1.80;;;;;;;10.54;94.69;96913.97;5003133;28;24939;-74
2022/07/09 03:53:04;;;;;;;2.72;1.65;;;;;;;10.49;95.74;96919.34;5004001;28;24428;-75
2022/07/09 03:55:32;;;;;;;3.30;2.00;;;;;;;10.56;95.18;96912.97;5009697;28;24507;-74
2022/07/09 03:57:58;;;;;;;1.90;1.55;;;;;;;10.57;94.95;96914.69;5008503;28;24440;-74
2022/07/09 04:00:25;;;;;;;4.32;1.90;;;;;;;10.67;94.19;96912.50;5010963;28;24545;-75
2022/07/09 04:02:51;;;;;;;3.13;1.80;;;;;;;10.69;94.47;96920.22;5006172;28;24527;-75
2022/07/09 04:05:18;;;;;;;3.17;1.73;;;;;;;10.65;94.68;96914.34;5004671;28;24920;-75
2022/07/09 04:07:45;;;;;;;3.25;1.45;;;;;;;10.63;95.65;96918.72;5008912;28;24432;-76
2022/07/09 04:10:12;;;;;;;4.20;1.70;;;;;;;10.65;95.45;96916.94;5011806;28;24444;-76
2022/07/09 04:12:39;;;;;;;2.90;1.58;;;;;;;10.63;96.57;96923.91;5008707;28;25004;-75
2022/07/09 04:15:07;;;;;;;4.10;1.70;;;;;;;10.73;95.93;96922.59;5012045;28;24547;-75
2022/07/09 04:17:34;;;;;;;3.17;1.70;;;;;;;10.75;95.09;96927.69;5008680;28;24436;-75
2022/07/09 04:20:00;;;;;;;2.33;1.40;;;;;;;10.81;93.75;96917.91;5004539;28;24472;-74
2022/07/09 04:22:27;;;;;;;3.30;1.80;;;;;;;10.93;91.65;96920.84;4999701;28;24436;-74
2022/07/09 04:24:53;;;;;;;5.05;1.70;;;;;;;10.95;91.03;96925.06;5006276;28;25397;-74
2022/07/09 04:27:19;;;;;;;2.15;1.52;;;;;;;10.88;91.43;96926.25;5007885;28;24448;-74
2022/07/09 04:29:47;;;;;;;3.20;1.90;;;;;;;10.70;93.54;96927.91;5007100;28;24433;-74
2022/07/09 04:32:15;;;;;;;3.22;1.77;;;;;;;10.71;94.31;96928.75;5004652;28;24976;-74
2022/07/09 04:34:41;;;;;;;3.15;1.75;;;;;;;10.65;96.01;96933.31;4993405;28;24437;-74
2022/07/09 04:37:08;;;;;;;2.38;1.90;;;;;;;10.55;97.16;96934.63;5006677;28;24829;-74
2022/07/09 04:39:34;;;;;;;2.97;1.80;;;;;;;10.59;97.79;96930.97;5008556;28;24460;-74
2022/07/09 04:42:01;;;;;;;5.75;1.92;;;;;;;10.79;96.70;96935.28;5006148;28;24853;-74
2022/07/09 04:44:27;;;;;;;2.60;1.70;;;;;;;11.00;95.28;96936.03;4995956;28;24439;-74
2022/07/09 04:46:55;;;;;;;2.17;1.92;;;;;;;11.13;95.01;96933.75;5008878;28;24448;-74
2022/07/09 04:49:24;;;;;;;2.70;2.10;;;;;;;11.11;96.21;96928.63;5010552;28;24444;-75
2022/07/09 04:51:50;;;;;;;3.27;2.10;;;;;;;11.12;96.40;96932.91;4995022;28;25033;-74
2022/07/09 04:54:17;;;;;;;5.28;2.28;;;;;;;11.18;96.35;96928.34;5001429;28;24436;-74
2022/07/09 04:56:43;;;;;;;5.07;2.30;;;;;;;11.26;97.12;96934.00;5009326;28;24447;-74
2022/07/09 04:59:09;;;;;;;3.85;2.38;;;;;;;11.30;98.29;96930.34;5003513;28;24444;-74
2022/07/09 05:01:36;;;;;;;2.58;2.10;;;;;;;11.47;97.86;96926.97;5011334;28;24833;-74
2022/07/09 05:04:04;;;;;;;5.00;2.30;;;;;;;11.51;99.18;96937.13;5006094;28;25127;-74
2022/07/09 05:06:30;;;;;;;3.35;2.03;;;;;;;11.59;100.00;96924.59;5008419;28;24987;-73
2022/07/09 05:08:57;;;;;;;7.18;1.95;;;;;;;11.67;100.00;96924.22;5003199;28;24442;-73
2022/07/09 05:11:23;;;;;;;4.07;2.58;;;;;;;11.76;98.37;96915.19;5008331;28;24459;-73
2022/07/09 05:13:49;;;;;;;3.50;2.20;;;;;;;11.82;98.31;96918.28;5006653;28;24926;-74
2022/07/09 05:16:16;;;;;;;7.03;2.28;;;;;;;11.95;97.51;96917.72;5001660;28;24433;-73
2022/07/09 05:18:44;;;;;;;5.25;2.47;;;;;;;12.04;96.72;96918.09;5005529;28;24443;-74
2022/07/09 05:21:12;;;;;;;5.55;2.10;;;;;;;12.06;96.48;96915.44;5008704;28;24431;-73
2022/07/09 05:23:38;;;;;;;4.15;2.38;;;;;;;12.18;95.43;96920.00;5006531;28;24443;-74
2022/07/09 05:26:05;;;;;;;3.93;2.07;;;;;;;12.33;94.43;96920.97;5009236;28;24439;-75
2022/07/09 05:28:32;;;;;;;4.32;1.98;;;;;;;12.34;89.96;96918.28;5006132;28;25027;-73
2022/07/09 05:30:58;;;;;;;4.97;2.15;;;;;;;12.39;89.17;96919.84;5002569;28;24974;-74
2022/07/09 05:33:25;;;;;;;3.97;1.90;;;;;;;12.53;89.07;96912.13;5006429;28;24443;-73
2022/07/09 05:35:52;;;;;;;3.45;2.00;;;;;;;12.66;87.73;96917.53;5009718;28;24432;-74
2022/07/09 05:38:20;;;;;;;4.18;1.88;;;;;;;12.67;86.96;96919.22;5005373;28;24441;-74
2022/07/09 05:40:47;;;;;;;4.28;2.20;;;;;;;12.65;87.04;96921.06;5009241;28;25004;-73
2022/07/09 05:43:13;;;;;;;5.32;2.13;;;;;;;12.71;86.98;96925.94;5006271;28;24447;-72
2022/07/09 05:45:40;;;;;;;3.07;1.90;;;;;;;12.90;87.28;96925.78;5001901;28;24457;-73
2022/07/09 05:48:06;;;;;;;4.60;1.85;;;;;;;13.10;86.27;96928.16;5003241;28;24799;-73
2022/07/09 05:50:33;;;;;;;2.60;1.80;;;;;;;13.20;85.33;96928.47;5002797;28;24440;-73
2022/07/09 05:52:59;;;;;;;5.72;2.15;;;;;;;13.34;84.70;96922.56;5009748;28;24455;-73
2022/07/09 05:55:27;;;;;;;2.70;1.92;;;;;;;13.43;83.49;96928.09;5004122;28;24496;-73
2022/07/09 05:57:54;;;;;;;5.80;1.85;;;;;;;13.63;83.31;96934.78;5006014;28;24435;-73
2022/07/09 06:00:20;;;;;;;8.38;2.38;;;;;;;13.78;82.43;96935.69;5001317;28;24436;-73
2022/07/09 06:02:47;;;;;;;4.05;2.25;;;;;;;13.79;81.12;96930.41;4998244;28;24439;-73
2022/07/09 06:05:13;;;;;;;4.72;1.85;;;;;;;13.80;81.19;96933.84;5010444;28;24440;-73
2022/07/09 06:07:44;;;;;;;4.25;2.03;;;;;;;13.77;81.79;96934.84;5003815;28;24799;-73
2022/07/09 06:10:11;;;;;;;2.83;1.90;;;;;;;13.69;81.92;96924.03;5006800;28;24471;-73
2022/07/09 06:12:39;;;;;;;4.18;1.80;;;;;;;13.88;81.78;96928.19;4996985;28;25080;-73
2022/07/09 06:15:07;;;;;;;5.53;2.27;;;;;;;14.22;81.15;96919.25;5008858;28;24433;-73
2022/07/09 06:17:33;;;;;;;3.22;1.70;;;;;;;14.36;80.09;96915.84;5005206;28;24436;-73
2022/07/09 06:20:00;;;;;;;4.78;2.15;;;;;;;14.61;79.20;96916.06;5009979;28;24440;-73
2022/07/09 06:22:26;;;;;;;3.40;2.10;;;;;;;14.95;78.50;96920.06;5006495;28;24429;-73
2022/07/09 06:24:53;;;;;;;3.85;2.20;;;;;;;15.09;76.30;96920.94;4996097;28;24440;-72
2022/07/09 06:27:19;;;;;;;4.35;2.00;;;;;;;15.37;76.60;96925.28;5001738;28;24443;-73
2022/07/09 06:29:47;;;;;;;3.28;2.13;;;;;;;15.34;74.19;96912.41;5000909;28;24445;-73
2022/07/09 06:32:13;;;;;;;3.42;2.30;;;;;;;15.38;74.92;96919.13;5005301;28;24865;-73
2022/07/09 06:34:40;;;;;;;4.68;2.50;;;;;;;15.41;74.71;96922.38;4995899;28;24433;-73
2022/07/09 06:37:06;;;;;;;5.20;1.90;;;;;;;15.51;74.57;96912.19;5004887;28;24437;-73
2022/07/09 06:39:48;;;;;;;7.20;2.22;;;;;;;15.70;73.99;96912.69;4999911;28;24440;-73
2022/07/09 06:42:16;;;;;;;6.18;2.28;;;;;;;15.94;73.60;96909.41;5004459;28;24424;-73
2022/07/09 06:44:43;;;;;;;6.15;2.00;;;;;;;16.18;72.72;96909.56;5004207;28;24441;-73
2022/07/09 06:47:11;;;;;;;4.95;2.25;;;;;;;16.44;72.10;96913.03;4993642;28;24436;-73
2022/07/09 06:49:38;;;;;;;4.97;2.10;;;;;;;16.34;72.14;96917.19;5007766;28;24443;-72
2022/07/09 06:52:05;;;;;;;3.15;1.80;;;;;;;16.46;70.56;96913.75;5005185;28;24456;-72
2022/07/09 06:54:32;;;;;;;5.85;2.28;;;;;;;16.97;71.39;96905.06;4991172;28;24441;-72
2022/07/09 06:56:58;;;;;;;3.70;1.77;;;;;;;17.37;68.70;96900.44;5000695;28;24492;-73
2022/07/09 06:59:25;;;;;;;3.65;1.83;;;;;;;17.46;67.61;96899.75;5006340;28;24508;-72
2022/07/09 07:01:52;;;;;;;5.22;2.10;;;;;;;17.52;67.00;96907.19;5000020;28;24445;-73
2022/07/09 07:04:20;;;;;;;8.70;2.35;;;;;;;17.51;67.22;96904.69;5007987;28;24799;-73
2022/07/09 07:06:48;;;;;;;4.40;2.42;;;;;;;17.66;66.46;96896.53;5004225;28;24488;-73
2022/07/09 07:09:15;;;;;;;3.15;1.73;;;;;;;17.90;64.59;96890.44;5008262;28;24475;-71
2022/07/09 07:11:41;;;;;;;4.72;1.92;;;;;;;18.31;63.56;96897.00;5009262;28;24526;-75
2022/07/09 07:14:07;;;;;;;4.93;2.05;;;;;;;18.33;61.27;96898.56;5008169;28;24436;-74
2022/07/09 07:16:34;;;;;;;4.93;1.77;;;;;;;18.83;62.34;96900.88;4995938;28;24444;-73
2022/07/09 07:19:00;;;;;;;6.20;2.17;;;;;;;18.93;60.68;96907.09;5007366;28;24490;-73
2022/07/09 07:21:28;;;;;;;3.42;1.65;;;;;;;19.10;59.17;96908.41;4998427;28;24456;-75
2022/07/09 07:23:54;;;;;;;4.28;1.90;;;;;;;19.18;58.88;96908.63;5008674;28;24452;-75
2022/07/09 07:26:21;;;;;;;3.93;1.53;;;;;;;19.33;53.60;96907.41;5006861;28;24834;-75
2022/07/09 07:28:48;;;;;;;6.82;2.03;;;;;;;19.38;54.19;96899.16;5004942;28;24503;-75
2022/07/09 07:31:15;;;;;;;4.95;1.42;;;;;;;19.52;52.34;96900.66;5000600;28;24439;-75
2022/07/09 07:33:41;;;;;;;4.43;1.67;;;;;;;19.65;53.37;96904.00;5002063;28;24681;-75
2022/07/09 07:36:08;;;;;;;3.80;1.77;;;;;;;19.53;51.81;96895.28;5004199;28;24447;-75
2022/07/09 07:38:36;;;;;;;4.40;1.40;;;;;;;20.00;52.32;96892.41;5004563;28;24495;-76
2022/07/09 07:41:02;;;;;;;3.92;1.45;;;;;;;20.28;50.29;96896.16;5001401;28;25053;-75
2022/07/09 07:43:29;;;;;;;3.67;1.83;;;;;;;20.56;49.09;96888.63;5009067;28;24819;-76
2022/07/09 07:45:55;;;;;;;4.47;1.90;;;;;;;20.87;48.41;96898.16;5012992;28;24966;-76
2022/07/09 07:48:22;;;;;;;3.05;1.75;;;;;;;20.94;48.66;96893.22;5008289;28;24490;-75
2022/07/09 07:50:48;;;;;;;5.60;1.40;;;;;;;20.86;50.63;96893.03;5009825;28;24443;-76
2022/07/09 07:53:14;;;;;;;4.53;1.70;;;;;;;20.78;49.97;96894.53;5014144;28;24842;-75
2022/07/09 07:55:42;;;;;;;2.33;1.00;;;;;;;20.83;50.91;96886.22;5008363;28;24439;-74
2022/07/09 07:58:09;;;;;;;2.63;1.20;;;;;;;20.81;52.07;96884.72;5011567;28;24436;-76
2022/07/09 08:00:37;;;;;;;2.70;1.08;;;;;;;20.86;51.53;96891.25;5014509;28;24428;-75
2022/07/09 08:03:04;;;;;;;3.17;1.30;;;;;;;20.99;51.82;96886.59;5010934;28;24437;-76
2022/07/09 08:05:30;;;;;;;2.88;1.20;;;;;;;21.09;50.65;96881.34;5012457;28;24441;-75
2022/07/09 08:07:57;;;;;;;2.53;1.30;;;;;;;21.37;51.59;96886.84;5008727;28;24437;-74
2022/07/09 08:10:24;;;;;;;2.60;1.30;;;;;;;21.17;50.56;96888.56;5012983;28;24432;-75
2022/07/09 08:12:51;;;;;;;4.00;1.40;;;;;;;20.92;51.44;96885.47;5010909;28;25029;-75
2022/07/09 08:15:18;;;;;;;3.13;1.23;;;;;;;21.61;54.00;96886.47;5005617;28;24441;-73
2022/07/09 08:17:45;;;;;;;2.63;1.33;;;;;;;22.19;51.86;96886.47;5011977;28;24559;-68
2022/07/09 08:20:12;;;;;;;4.38;1.15;;;;;;;22.44;49.25;96885.88;5012355;28;24523;-74
2022/07/09 08:22:38;;;;;;;2.90;1.13;;;;;;;22.45;47.87;96884.91;5007627;28;24437;-72
2022/07/09 08:25:05;;;;;;;1.80;1.00;;;;;;;22.11;48.45;96881.88;5009017;28;24483;-74
2022/07/09 08:27:32;;;;;;;2.45;1.00;;;;;;;22.72;49.45;96878.00;5010538;28;24443;-74
2022/07/09 08:30:00;;;;;;;2.35;0.93;;;;;;;23.00;46.43;96878.91;5013251;28;24444;-76
2022/07/09 08:32:26;;;;;;;2.35;1.35;;;;;;;23.32;47.54;96880.25;5011326;28;24510;-74
2022/07/09 08:34:53;;;;;;;4.97;1.05;;;;;;;23.52;47.35;96873.03;5007676;28;24436;-74
2022/07/09 08:37:19;;;;;;;8.70;1.23;;;;;;;23.75;45.70;96869.00;5012479;28;24441;-74
2022/07/09 08:39:45;;;;;;;4.85;1.50;;;;;;;23.74;43.68;96874.44;5007185;28;24452;-74
2022/07/09 08:42:12;;;;;;;3.13;1.10;;;;;;;23.96;42.84;96868.69;5012994;28;24974;-74
2022/07/09 08:44:42;;;;;;;2.70;1.00;;;;;;;23.15;44.39;96866.84;5006539;28;24436;-75
2022/07/09 08:47:12;;;;;;;6.60;1.40;;;;;;;23.48;45.16;96867.22;5005408;28;24460;-75
2022/07/09 08:49:39;;;;;;;2.33;1.00;;;;;;;23.80;44.67;96855.31;5005683;28;24533;-75
2022/07/09 08:52:07;;;;;;;2.43;1.17;;;;;;;23.81;44.38;96855.16;5006070;28;24512;-74
2022/07/09 08:54:35;;;;;;;7.45;1.10;;;;;;;24.07;44.88;96857.03;5003317;28;24428;-75
2022/07/09 08:57:01;;;;;;;2.78;0.90;;;;;;;23.98;41.85;96852.66;5012489;28;25012;-75
2022/07/09 08:59:28;;;;;;;5.55;1.48;;;;;;;24.12;43.56;96850.28;5010953;28;25001;-74
2022/07/09 09:01:54;;;;;;;3.35;1.30;;;;;;;24.46;43.31;96854.00;5012334;28;24454;-75
2022/07/09 09:04:23;;;;;;;4.70;1.20;;;;;;;24.57;43.57;96848.44;5008094;28;24425;-75
2022/07/09 09:06:50;;;;;;;2.97;1.00;;;;;;;24.69;40.83;96851.66;5012403;28;24435;-74
2022/07/09 09:09:19;;;;;;;2.25;1.02;;;;;;;24.75;40.52;96851.03;5012104;28;24443;-73
2022/07/09 09:11:49;;;;;;;4.78;1.10;;;;;;;24.73;38.88;96847.69;5003965;28;24433;-74
2022/07/09 09:14:21;;;;;;;2.80;1.10;;;;;;;24.62;43.13;96841.69;5007106;28;24551;-73
2022/07/09 09:16:48;;;;;;;4.20;1.20;;;;;;;24.45;45.46;96839.13;5003120;28;24450;-73
2022/07/09 09:19:14;;;;;;;2.85;1.10;;;;;;;24.42;43.05;96834.13;5001795;28;24527;-74
2022/07/09 09:21:42;;;;;;;2.40;0.95;;;;;;;24.43;42.34;96823.38;4998604;28;24464;-73
2022/07/09 09:24:09;;;;;;;4.30;1.48;;;;;;;23.70;42.85;96831.59;5005119;28;24488;-74
2022/07/09 09:26:36;;;;;;;2.13;1.10;;;;;;;22.96;40.24;96842.38;5010144;28;24432;-73
2022/07/09 09:29:04;;;;;;;1.45;0.80;;;;;;;23.46;39.75;96831.31;5000575;28;24441;-75
2022/07/09 09:31:32;;;;;;;2.08;0.90;;;;;;;23.23;40.44;96844.16;5004514;28;24469;-74
2022/07/09 09:34:11;;;;;;;3.00;0.90;;;;;;;23.19;41.76;96833.03;5005440;28;24504;-74
2022/07/09 09:36:39;;;;;;;1.17;0.68;;;;;;;23.07;41.61;96834.22;5010311;28;24440;-74
2022/07/09 09:39:12;;;;;;;2.13;0.98;;;;;;;23.37;41.19;96825.97;5005406;28;24435;-73
2022/07/09 09:41:39;;;;;;;1.20;0.95;;;;;;;23.01;42.03;96827.72;5010330;28;24830;-73
2022/07/09 09:44:09;;;;;;;3.08;1.02;;;;;;;22.74;43.77;96820.59;5004808;28;24436;-73
2022/07/09 09:46:37;;;;;;;2.73;1.20;;;;;;;22.69;48.79;96825.47;4999331;28;24460;-73
2022/07/09 09:49:05;;;;;;;2.08;1.00;;;;;;;22.89;47.98;96823.59;4994846;28;24445;-73
2022/07/09 09:51:34;;;;;;;1.77;0.90;;;;;;;23.12;44.07;96821.41;5008317;28;24432;-73
2022/07/09 09:54:03;;;;;;;1.73;0.95;;;;;;;23.51;46.63;96816.69;5006340;28;24451;-75
2022/07/09 09:56:32;;;;;;;2.17;0.88;;;;;;;23.71;45.78;96816.56;5009374;28;24479;-74
2022/07/09 09:59:00;;;;;;;3.20;1.33;;;;;;;23.15;44.07;96818.47;5050490;23;24487;-73
2022/07/09 10:01:28;;;;;;;4.53;1.00;;;;;;;23.31;44.86;96817.78;5025307;28;24523;-73
2022/07/09 10:03:55;;;;;;;1.33;0.82;;;;;;;23.25;43.47;96818.38;5022376;28;24439;-75
2022/07/09 10:06:22;;;;;;;2.40;1.00;;;;;;;23.27;43.21;96809.34;5027709;28;24526;-75
2022/07/09 10:08:49;;;;;;;1.40;0.80;;;;;;;23.51;49.16;96807.91;5029414;28;24439;-75
2022/07/09 10:11:15;;;;;;;2.67;1.03;;;;;;;23.14;44.50;96804.44;5020828;28;24440;-75
2022/07/09 10:13:52;;;;;;;3.08;1.00;;;;;;;22.90;44.90;96812.88;5021624;28;24459;-75
2022/07/09 10:16:19;;;;;;;2.00;1.00;;;;;;;23.41;43.62;96808.81;5023223;28;24455;-76
2022/07/09 10:18:52;;;;;;;4.22;1.23;;;;;;;23.44;47.20;96805.06;5025388;28;24439;-75
2022/07/09 10:21:18;;;;;;;2.03;0.90;;;;;;;23.38;44.73;96803.00;5028379;28;24987;-75
2022/07/09 10:23:50;;;;;;;1.80;0.70;;;;;;;23.99;44.99;96796.09;5028154;28;24428;-75
2022/07/09 10:26:16;;;;;;;1.95;0.77;;;;;;;23.45;44.21;96787.38;5026763;28;25003;-75
2022/07/09 10:28:43;;;;;;;1.17;0.80;;;;;;;24.13;43.70;96795.53;5025353;28;24797;-75
2022/07/09 10:31:12;;;;;;;2.22;0.90;;;;;;;24.87;47.65;96788.81;5028424;28;24630;-74
2022/07/09 10:33:49;;;;;;;3.22;0.98;;;;;;;25.31;42.64;96789.44;5025344;28;24448;-75
2022/07/09 10:36:17;;;;;;;3.70;1.17;;;;;;;25.55;46.22;96790.47;5026255;28;24438;-76
2022/07/09 10:38:54;;;;;;;1.60;0.85;;;;;;;25.49;43.01;96799.09;5025506;28;24447;-75
2022/07/09 10:41:22;;;;;;;2.05;0.80;;;;;;;25.25;41.34;96790.13;5028549;28;24526;-76
2022/07/09 10:43:51;;;;;;;3.60;1.10;;;;;;;25.10;42.51;96783.75;5026223;28;24535;-76
2022/07/09 10:46:19;;;;;;;4.88;1.30;;;;;;;24.94;40.23;96795.13;5028379;28;24853;-76
2022/07/09 10:48:47;;;;;;;1.53;0.70;;;;;;;24.54;43.48;96795.78;5025532;28;24493;-76
2022/07/09 10:51:18;;;;;;;2.10;0.90;;;;;;;24.34;41.99;96795.16;5028296;28;24964;-76
2022/07/09 10:53:45;;;;;;;1.98;0.82;;;;;;;24.06;41.65;96790.00;5021954;28;24898;-76
2022/07/09 10:56:11;;;;;;;2.10;0.90;;;;;;;24.06;42.79;96794.47;5030074;28;24428;-77
2022/07/09 10:58:38;;;;;;;1.52;0.90;;;;;;;23.58;42.14;96788.66;5027184;28;24420;-77
2022/07/09 11:01:04;;;;;;;1.73;1.00;;;;;;;22.94;44.30;96789.66;5025964;28;24478;-77
2022/07/09 11:03:33;;;;;;;2.35;0.90;;;;;;;22.74;45.94;96799.47;5026572;28;24462;-77
2022/07/09 11:05:59;;;;;;;1.70;1.00;;;;;;;22.81;45.33;96797.91;5024942;28;24478;-77
2022/07/09 11:08:26;;;;;;;2.50;0.98;;;;;;;22.71;44.77;96797.13;5024394;28;24746;-75
2022/07/09 11:10:53;;;;;;;1.95;1.00;;;;;;;22.72;44.14;96796.13;5014769;28;24435;-76
2022/07/09 11:13:23;;;;;;;5.03;1.10;;;;;;;22.75;44.57;96793.22;5027261;28;24813;-76
2022/07/09 11:15:50;;;;;;;4.77;1.17;;;;;;;22.44;44.51;96787.38;5032859;28;24436;-76
2022/07/09 11:18:17;;;;;;;1.90;0.80;;;;;;;22.71;44.60;96792.66;5029270;28;24435;-76
2022/07/09 11:20:47;;;;;;;2.20;0.90;;;;;;;22.77;44.42;96793.91;5032108;28;24522;-76
2022/07/09 11:23:14;;;;;;;2.35;0.98;;;;;;;22.70;45.02;96793.66;5029693;28;24432;-76
2022/07/09 11:25:41;;;;;;;3.40;1.00;;;;;;;22.52;45.53;96792.78;5024148;28;24439;-76
2022/07/09 11:28:08;;;;;;;1.80;0.95;;;;;;;22.26;47.16;96786.47;5029747;28;24462;-76
2022/07/09 11:30:36;;;;;;;1.50;0.90;;;;;;;22.34;46.53;96787.41;5029596;28;24436;-76
2022/07/09 11:33:02;;;;;;;3.78;1.05;;;;;;;22.29;47.25;96786.19;5027072;28;24466;-76